Time;durP1;ratioP1;P1;durP2;ratioP2;P2;SDS_P1;SDS_P2;PMS_P1;PMS_P2;Temp;Humidity;BMP_temperature;BMP_pressure;BME280_temperature;BME280_humidity;BME280_pressure;Samples;Min_cycle;Max_cycle;Signal;HPM_P1;HPM_P2
2021/09/06 00:00:38;;;;;;;17.60;8.13;;;;;;;;;;4925100;29;20195;-43
2021/09/06 00:03:04;;;;;;;12.48;6.15;;;;;;;;;;4925202;29;20032;-42
2021/09/06 00:05:30;;;;;;;24.33;12.45;;;;;;;;;;4925107;29;20031;-43
2021/09/06 00:07:56;;;;;;;41.72;17.70;;;;;;;;;;4924895;29;20090;-42
2021/09/06 00:10:37;;;;;;;20.88;10.55;;;;;;;;;;4925180;29;20338;-42
2021/09/06 00:13:03;;;;;;;;;;;;;;;;;;4926571;29;20134;-40
2021/09/06 00:15:29;;;;;;;9.13;4.05;;;;;;;;;;4925210;29;20025;-41
2021/09/06 00:17:55;;;;;;;15.80;7.55;;;;;;;;;;4924830;29;20028;-41
2021/09/06 00:20:22;;;;;;;11.77;6.22;;;;;;;;;;4924982;29;20290;-41
2021/09/06 00:22:48;;;;;;;47.58;27.80;;;;;;;;;;4924716;29;20550;-42
2021/09/06 00:25:14;;;;;;;17.35;10.27;;;;;;;;;;4934320;29;20027;-44
2021/09/06 00:27:40;;;;;;;7.22;3.70;;;;;;;;;;4954367;29;20032;-45
2021/09/06 00:30:07;;;;;;;23.58;13.90;;;;;;;;;;4954612;28;20039;-43
2021/09/06 00:32:35;;;;;;;20.73;11.40;;;;;;;;;;4954599;29;20496;-46
2021/09/06 00:35:01;;;;;;;53.65;25.13;;;;;;;;;;4956320;28;20543;-47
2021/09/06 00:37:27;;;;;;;43.03;25.25;;;;;;;;;;4957962;29;20027;-45
2021/09/06 00:39:53;;;;;;;14.52;7.15;;;;;;;;;;4958118;29;20444;-46
2021/09/06 00:42:19;;;;;;;12.50;7.05;;;;;;;;;;4957986;28;20049;-46
2021/09/06 00:44:45;;;;;;;60.35;32.97;;;;;;;;;;4958031;28;20024;-46
2021/09/06 00:47:12;;;;;;;24.70;13.50;;;;;;;;;;4957869;29;20106;-44
2021/09/06 00:49:38;;;;;;;41.63;20.20;;;;;;;;;;4958084;29;20090;-47
2021/09/06 00:52:04;;;;;;;20.35;11.15;;;;;;;;;;4957717;29;20030;-45
2021/09/06 00:54:32;;;;;;;31.55;17.20;;;;;;;;;;4957753;29;20106;-47
2021/09/06 00:56:59;;;;;;;27.52;12.68;;;;;;;;;;4957763;29;20072;-47
2021/09/06 00:59:25;;;;;;;31.58;16.75;;;;;;;;;;4957745;29;20027;-46
2021/09/06 01:01:51;;;;;;;25.80;13.52;;;;;;;;;;4957534;29;20519;-46
2021/09/06 01:04:17;;;;;;;21.23;11.02;;;;;;;;;;4957486;29;20027;-47
2021/09/06 01:06:43;;;;;;;8.10;4.57;;;;;;;;;;4957424;29;20051;-46
2021/09/06 01:09:12;;;;;;;33.72;18.30;;;;;;;;;;4957536;28;20027;-47
2021/09/06 01:11:38;;;;;;;32.33;18.20;;;;;;;;;;4957438;29;20160;-45
2021/09/06 01:14:04;;;;;;;8.90;5.07;;;;;;;;;;4957350;29;20035;-47
2021/09/06 01:16:30;;;;;;;9.93;5.32;;;;;;;;;;4957388;28;20054;-45
2021/09/06 01:18:56;;;;;;;8.32;4.28;;;;;;;;;;4957225;28;20092;-46
2021/09/06 01:21:22;;;;;;;7.15;3.85;;;;;;;;;;4957268;28;20519;-44
2021/09/06 01:23:48;;;;;;;9.55;5.60;;;;;;;;;;4957249;28;20031;-45
2021/09/06 01:26:16;;;;;;;11.95;6.53;;;;;;;;;;4957126;28;20019;-42
2021/09/06 01:28:45;;;;;;;37.45;20.15;;;;;;;;;;4957184;28;20106;-47
2021/09/06 01:31:11;;;;;;;44.85;23.65;;;;;;;;;;4957202;29;20023;-47
2021/09/06 01:33:37;;;;;;;37.83;21.80;;;;;;;;;;4956997;29;20039;-44
2021/09/06 01:36:03;;;;;;;8.88;5.43;;;;;;;;;;4956965;29;20078;-45
2021/09/06 01:38:29;;;;;;;7.70;3.67;;;;;;;;;;4956968;28;20039;-44
2021/09/06 01:40:55;;;;;;;10.05;5.53;;;;;;;;;;4956833;28;20535;-46
2021/09/06 01:43:21;;;;;;;13.82;6.82;;;;;;;;;;4956942;28;20035;-46
2021/09/06 01:45:47;;;;;;;9.82;3.83;;;;;;;;;;4956331;28;20110;-45
2021/09/06 01:48:13;;;;;;;9.00;3.60;;;;;;;;;;4956766;28;20034;-47
2021/09/06 01:50:40;;;;;;;6.55;3.17;;;;;;;;;;4956959;28;20031;-45
2021/09/06 01:53:06;;;;;;;3.45;1.70;;;;;;;;;;4956619;28;20035;-46
2021/09/06 01:55:32;;;;;;;3.08;1.50;;;;;;;;;;4955406;29;20027;-46
2021/09/06 01:57:58;;;;;;;3.85;2.53;;;;;;;;;;4956629;28;20034;-44
2021/09/06 02:00:24;;;;;;;4.00;2.00;;;;;;;;;;4956612;28;20035;-46
2021/09/06 02:02:50;;;;;;;3.72;2.05;;;;;;;;;;4956551;28;20023;-45
2021/09/06 02:05:16;;;;;;;5.78;1.98;;;;;;;;;;4956569;28;20383;-45
2021/09/06 02:07:42;;;;;;;3.45;1.75;;;;;;;;;;4956301;28;20102;-45
2021/09/06 02:10:11;;;;;;;3.85;1.60;;;;;;;;;;4956532;28;20066;-43
2021/09/06 02:12:39;;;;;;;2.72;1.30;;;;;;;;;;4956313;28;20030;-46
2021/09/06 02:15:06;;;;;;;3.88;1.55;;;;;;;;;;4956418;28;20057;-45
2021/09/06 02:17:32;;;;;;;2.58;1.45;;;;;;;;;;4956287;28;20054;-46
2021/09/06 02:19:58;;;;;;;10.27;1.95;;;;;;;;;;4956276;28;20030;-44
2021/09/06 02:22:24;;;;;;;3.03;1.63;;;;;;;;;;4956162;28;20480;-46
2021/09/06 02:24:50;;;;;;;1.80;1.20;;;;;;;;;;4956319;28;20031;-45
2021/09/06 02:27:16;;;;;;;3.78;1.80;;;;;;;;;;4956031;28;20479;-45
2021/09/06 02:29:42;;;;;;;7.30;2.72;;;;;;;;;;4956153;28;20035;-45
2021/09/06 02:32:09;;;;;;;13.77;7.63;;;;;;;;;;4956037;28;20024;-45
2021/09/06 02:34:37;;;;;;;12.63;8.23;;;;;;;;;;4955884;28;20055;-45
2021/09/06 02:37:03;;;;;;;9.52;6.57;;;;;;;;;;4955991;28;20047;-45
2021/09/06 02:39:29;;;;;;;7.28;5.15;;;;;;;;;;4956138;28;20429;-47
2021/09/06 02:42:00;;;;;;;9.07;4.07;;;;;;;;;;4955780;28;20559;-45
2021/09/06 02:44:30;;;;;;;2.88;2.17;;;;;;;;;;4956129;28;20098;-46
2021/09/06 02:46:59;;;;;;;3.10;2.08;;;;;;;;;;4955670;28;20031;-46
2021/09/06 02:49:25;;;;;;;3.60;2.33;;;;;;;;;;4955694;28;20031;-46
2021/09/06 02:51:51;;;;;;;4.00;2.10;;;;;;;;;;4955676;28;20035;-45
2021/09/06 02:54:17;;;;;;;4.22;1.77;;;;;;;;;;4955729;28;20039;-45
2021/09/06 02:56:44;;;;;;;6.45;2.25;;;;;;;;;;4955648;28;20023;-45
2021/09/06 02:59:11;;;;;;;6.13;2.70;;;;;;;;;;4954748;28;20031;-46
2021/09/06 03:01:37;;;;;;;4.18;2.13;;;;;;;;;;4955546;28;20023;-47
2021/09/06 03:04:03;;;;;;;2.85;1.85;;;;;;;;;;4955842;28;20031;-44
2021/09/06 03:06:29;;;;;;;3.92;1.85;;;;;;;;;;4955378;28;20039;-44
2021/09/06 03:08:56;;;;;;;3.28;1.70;;;;;;;;;;4955430;28;20470;-46
2021/09/06 03:11:24;;;;;;;5.00;2.03;;;;;;;;;;4955381;28;20023;-45
2021/09/06 03:13:53;;;;;;;4.53;1.80;;;;;;;;;;4955456;28;20043;-45
2021/09/06 03:16:22;;;;;;;8.15;1.80;;;;;;;;;;4955308;28;20027;-45
2021/09/06 03:18:51;;;;;;;2.90;1.65;;;;;;;;;;4955548;28;20472;-46
2021/09/06 03:21:18;;;;;;;2.83;1.65;;;;;;;;;;4955540;28;20031;-47
2021/09/06 03:23:44;;;;;;;6.28;1.70;;;;;;;;;;4955339;28;20086;-46
2021/09/06 03:26:10;;;;;;;4.68;1.90;;;;;;;;;;4955355;28;20107;-48
2021/09/06 03:28:36;;;;;;;5.97;2.08;;;;;;;;;;4955279;28;20480;-48
2021/09/06 03:31:06;;;;;;;3.50;1.63;;;;;;;;;;4955069;28;20035;-45
2021/09/06 03:33:32;;;;;;;3.03;1.60;;;;;;;;;;4955636;28;20058;-47
2021/09/06 03:35:58;;;;;;;3.45;1.48;;;;;;;;;;4954940;28;20039;-46
2021/09/06 03:38:24;;;;;;;3.70;1.60;;;;;;;;;;4955248;28;20484;-47
2021/09/06 03:40:50;;;;;;;3.30;1.50;;;;;;;;;;4955294;28;20035;-46
2021/09/06 03:43:16;;;;;;;8.98;1.60;;;;;;;;;;4955043;28;20034;-47
2021/09/06 03:45:42;;;;;;;4.20;1.38;;;;;;;;;;4955072;28;20107;-48
2021/09/06 03:48:08;;;;;;;7.32;1.80;;;;;;;;;;4955207;28;20090;-44
2021/09/06 03:50:35;;;;;;;5.22;1.83;;;;;;;;;;4955225;28;20066;-46
2021/09/06 03:53:01;;;;;;;7.85;2.03;;;;;;;;;;4955084;28;20110;-46
2021/09/06 03:55:27;;;;;;;9.35;1.92;;;;;;;;;;4954884;28;20027;-45
2021/09/06 03:57:53;;;;;;;6.22;2.03;;;;;;;;;;4954901;28;20507;-45
2021/09/06 04:00:23;;;;;;;4.13;1.83;;;;;;;;;;4954935;28;20392;-46
2021/09/06 04:02:50;;;;;;;4.83;1.90;;;;;;;;;;4954898;28;20524;-47
2021/09/06 04:05:16;;;;;;;4.65;1.80;;;;;;;;;;4954792;28;20020;-45
2021/09/06 04:07:42;;;;;;;8.18;3.15;;;;;;;;;;4954496;28;20511;-44
2021/09/06 04:10:08;;;;;;;8.93;2.50;;;;;;;;;;4956955;28;20041;-45
2021/09/06 04:12:34;;;;;;;7.10;2.38;;;;;;;;;;4958617;28;20106;-46
2021/09/06 04:15:02;;;;;;;8.70;1.92;;;;;;;;;;4959026;28;20387;-46
2021/09/06 04:17:28;;;;;;;5.45;1.98;;;;;;;;;;4958523;28;20030;-45
2021/09/06 04:19:59;;;;;;;9.65;2.10;;;;;;;;;;4958644;28;20106;-48
2021/09/06 04:22:25;;;;;;;5.90;2.60;;;;;;;;;;4958659;28;20057;-48
2021/09/06 04:24:51;;;;;;;4.90;2.08;;;;;;;;;;4958609;28;20265;-47
2021/09/06 04:27:17;;;;;;;5.25;2.17;;;;;;;;;;4958353;28;20387;-46
2021/09/06 04:29:46;;;;;;;7.60;1.98;;;;;;;;;;4958211;28;20110;-46
2021/09/06 04:32:12;;;;;;;3.50;2.05;;;;;;;;;;4958234;28;20069;-47
2021/09/06 04:34:38;;;;;;;21.63;10.95;;;;;;;;;;4958001;28;20032;-47
2021/09/06 04:37:05;;;;;;;39.67;22.38;;;;;;;;;;4956661;29;20400;-46
2021/09/06 04:39:32;;;;;;;16.77;9.35;;;;;;;;;;4958296;29;20035;-45
2021/09/06 04:41:58;;;;;;;10.85;6.28;;;;;;;;;;4958015;28;20102;-45
2021/09/06 04:44:24;;;;;;;12.40;6.25;;;;;;;;;;4958141;28;20051;-45
2021/09/06 04:46:50;;;;;;;9.35;4.80;;;;;;;;;;4956587;29;20402;-45
2021/09/06 04:49:16;;;;;;;10.63;3.92;;;;;;;;;;4957918;28;20034;-46
2021/09/06 04:51:42;;;;;;;8.57;4.15;;;;;;;;;;4957962;28;20154;-45
2021/09/06 04:54:08;;;;;;;18.70;8.27;;;;;;;;;;4957926;28;20039;-46
2021/09/06 04:56:36;;;;;;;13.15;5.32;;;;;;;;;;4957736;28;20027;-45
2021/09/06 04:59:03;;;;;;;10.63;5.72;;;;;;;;;;4957853;28;20019;-44
2021/09/06 05:01:29;;;;;;;20.70;6.90;;;;;;;;;;4957571;28;20398;-46
2021/09/06 05:03:56;;;;;;;19.75;10.70;;;;;;;;;;4957675;28;20106;-45
2021/09/06 05:06:22;;;;;;;20.05;7.95;;;;;;;;;;4957567;28;20038;-46
2021/09/06 05:08:52;;;;;;;15.30;5.13;;;;;;;;;;4957512;28;20028;-46
2021/09/06 05:11:19;;;;;;;47.35;24.48;;;;;;;;;;4957680;28;20032;-43
2021/09/06 05:13:45;;;;;;;48.22;23.42;;;;;;;;;;4957318;29;20028;-43
2021/09/06 05:16:11;;;;;;;22.75;11.77;;;;;;;;;;4957418;29;20114;-43
2021/09/06 05:18:39;;;;;;;21.50;9.05;;;;;;;;;;4957449;29;20037;-43
2021/09/06 05:21:05;;;;;;;8.02;4.72;;;;;;;;;;4956529;28;20046;-43
2021/09/06 05:23:31;;;;;;;7.15;3.70;;;;;;;;;;4957300;28;20431;-43
2021/09/06 05:25:57;;;;;;;6.70;3.38;;;;;;;;;;4957407;28;20357;-43
2021/09/06 05:28:24;;;;;;;6.50;2.78;;;;;;;;;;4955856;29;20484;-44
2021/09/06 05:30:50;;;;;;;7.53;3.03;;;;;;;;;;4957102;28;20023;-44
2021/09/06 05:33:16;;;;;;;7.93;3.45;;;;;;;;;;4957186;28;20513;-43
2021/09/06 05:35:42;;;;;;;10.70;2.83;;;;;;;;;;4957121;28;20027;-44
2021/09/06 05:38:08;;;;;;;7.68;2.67;;;;;;;;;;4956883;28;20555;-44
2021/09/06 05:40:37;;;;;;;8.00;2.55;;;;;;;;;;4957134;28;20086;-44
2021/09/06 05:43:03;;;;;;;6.53;3.50;;;;;;;;;;4956983;28;20060;-43
2021/09/06 05:45:29;;;;;;;12.38;6.53;;;;;;;;;;4957091;28;20031;-43
2021/09/06 05:47:55;;;;;;;17.13;8.32;;;;;;;;;;4955497;29;20031;-44
2021/09/06 05:50:21;;;;;;;13.88;7.18;;;;;;;;;;4956827;28;20074;-44
2021/09/06 05:52:48;;;;;;;73.25;43.85;;;;;;;;;;4956742;28;20028;-43
2021/09/06 05:55:14;;;;;;;17.80;6.32;;;;;;;;;;4956940;29;20361;-43
2021/09/06 05:57:40;;;;;;;18.48;6.63;;;;;;;;;;4956516;28;20449;-44
2021/09/06 06:00:08;;;;;;;7.97;2.90;;;;;;;;;;4956820;28;20027;-43
2021/09/06 06:02:36;;;;;;;10.50;3.38;;;;;;;;;;4955380;29;20055;-42
2021/09/06 06:05:03;;;;;;;8.77;2.50;;;;;;;;;;4956636;28;20061;-45
2021/09/06 06:07:33;;;;;;;9.10;2.72;;;;;;;;;;4956337;28;20051;-44
2021/09/06 06:10:00;;;;;;;7.95;2.92;;;;;;;;;;4956530;28;20078;-43
2021/09/06 06:12:30;;;;;;;4.22;2.03;;;;;;;;;;4956334;28;20028;-44
2021/09/06 06:14:56;;;;;;;7.28;2.10;;;;;;;;;;4956377;28;20035;-43
2021/09/06 06:17:24;;;;;;;6.43;2.47;;;;;;;;;;4956386;28;20027;-44
2021/09/06 06:19:51;;;;;;;11.38;3.20;;;;;;;;;;4956360;28;20045;-44
2021/09/06 06:22:18;;;;;;;8.95;2.30;;;;;;;;;;4956465;28;20019;-43
2021/09/06 06:24:46;;;;;;;13.55;3.70;;;;;;;;;;4956351;28;20082;-43
2021/09/06 06:27:12;;;;;;;4.55;2.63;;;;;;;;;;4956109;28;20053;-44
2021/09/06 06:29:38;;;;;;;10.85;3.50;;;;;;;;;;4956114;28;20472;-43
2021/09/06 06:32:04;;;;;;;6.55;2.30;;;;;;;;;;4956059;28;20023;-47
2021/09/06 06:34:30;;;;;;;3.47;2.17;;;;;;;;;;4954802;29;20086;-46
2021/09/06 06:36:59;;;;;;;5.82;2.38;;;;;;;;;;4954707;29;20037;-45
2021/09/06 06:39:25;;;;;;;8.85;2.45;;;;;;;;;;4956126;28;20031;-44
2021/09/06 06:41:51;;;;;;;3.45;2.10;;;;;;;;;;4955893;28;20027;-44
2021/09/06 06:44:17;;;;;;;6.60;2.10;;;;;;;;;;4955629;28;20031;-45
2021/09/06 06:46:43;;;;;;;7.25;2.50;;;;;;;;;;4955998;28;20028;-43
2021/09/06 06:49:09;;;;;;;5.32;2.40;;;;;;;;;;4956026;28;20074;-42
2021/09/06 06:51:36;;;;;;;3.72;2.28;;;;;;;;;;4955688;28;20114;-43
2021/09/06 06:54:02;;;;;;;9.70;2.90;;;;;;;;;;4954337;29;20047;-44
2021/09/06 06:56:28;;;;;;;5.30;2.83;;;;;;;;;;4955693;28;20046;-44
2021/09/06 06:58:59;;;;;;;5.55;2.88;;;;;;;;;;4955569;28;20027;-44
2021/09/06 07:01:25;;;;;;;5.95;2.53;;;;;;;;;;4955696;28;20019;-44
2021/09/06 07:03:51;;;;;;;5.25;2.78;;;;;;;;;;4955544;28;20181;-44
2021/09/06 07:06:17;;;;;;;5.40;3.13;;;;;;;;;;4955314;28;20428;-44
2021/09/06 07:08:46;;;;;;;9.40;2.78;;;;;;;;;;4955294;28;20027;-43
2021/09/06 07:11:12;;;;;;;6.28;2.92;;;;;;;;;;4955457;28;20141;-43
2021/09/06 07:13:38;;;;;;;5.28;2.75;;;;;;;;;;4955182;28;20041;-44
2021/09/06 07:16:04;;;;;;;15.70;6.90;;;;;;;;;;4955383;28;20395;-44
2021/09/06 07:18:30;;;;;;;7.30;3.25;;;;;;;;;;4955860;28;20519;-43
2021/09/06 07:21:01;;;;;;;10.05;3.55;;;;;;;;;;4955653;28;20033;-43
2021/09/06 07:23:27;;;;;;;7.82;3.20;;;;;;;;;;4955580;28;20555;-43
2021/09/06 07:25:53;;;;;;;9.25;3.35;;;;;;;;;;4955499;28;20491;-43
2021/09/06 07:28:21;;;;;;;6.13;3.33;;;;;;;;;;4955321;28;20031;-44
2021/09/06 07:30:47;;;;;;;6.25;3.38;;;;;;;;;;4955324;28;20031;-43
2021/09/06 07:33:14;;;;;;;6.60;3.38;;;;;;;;;;4955363;28;20484;-43
2021/09/06 07:35:40;;;;;;;6.63;3.17;;;;;;;;;;4955508;28;20043;-45
2021/09/06 07:38:06;;;;;;;8.30;3.85;;;;;;;;;;4955168;28;20015;-43
2021/09/06 07:40:32;;;;;;;9.27;3.58;;;;;;;;;;4955261;28;20041;-44
2021/09/06 07:42:58;;;;;;;8.40;3.58;;;;;;;;;;4955100;28;20028;-44
2021/09/06 07:45:24;;;;;;;9.75;4.40;;;;;;;;;;4957844;28;20023;-44
2021/09/06 07:47:50;;;;;;;10.10;4.18;;;;;;;;;;4959459;28;20515;-44
2021/09/06 07:50:19;;;;;;;6.15;4.50;;;;;;;;;;4959114;28;20031;-43
2021/09/06 07:52:45;;;;;;;8.05;4.38;;;;;;;;;;4959177;28;20376;-45
2021/09/06 07:55:11;;;;;;;8.73;5.25;;;;;;;;;;4958981;28;20043;-45
2021/09/06 07:57:37;;;;;;;9.25;4.95;;;;;;;;;;4958889;28;20038;-44
2021/09/06 08:00:07;;;;;;;12.77;5.20;;;;;;;;;;4958895;28;20117;-44
2021/09/06 08:02:49;;;;;;;6.18;4.50;;;;;;;;;;4958851;28;20034;-43
2021/09/06 08:05:24;;;;;;;11.90;6.40;;;;;;;;;;4958935;28;20491;-45
2021/09/06 08:07:51;;;;;;;10.80;5.90;;;;;;;;;;4958512;28;20043;-45
2021/09/06 08:10:18;;;;;;;7.38;4.72;;;;;;;;;;4958577;28;20027;-45
2021/09/06 08:12:44;;;;;;;8.65;4.70;;;;;;;;;;4958464;28;20023;-44
2021/09/06 08:15:10;;;;;;;12.57;4.65;;;;;;;;;;4958549;28;20043;-44
2021/09/06 08:17:39;;;;;;;17.45;5.95;;;;;;;;;;4958610;28;20019;-45
2021/09/06 08:20:06;;;;;;;19.45;8.90;;;;;;;;;;4958538;28;20506;-45
2021/09/06 08:22:33;;;;;;;16.70;6.22;;;;;;;;;;4958455;28;20514;-45
2021/09/06 08:25:00;;;;;;;16.50;7.70;;;;;;;;;;4958441;28;20086;-44
2021/09/06 08:27:29;;;;;;;15.75;6.95;;;;;;;;;;4958366;28;20543;-45
2021/09/06 08:29:59;;;;;;;12.63;5.70;;;;;;;;;;4958245;28;20488;-46
2021/09/06 08:32:26;;;;;;;30.33;14.13;;;;;;;;;;4958485;28;20027;-44
2021/09/06 08:34:52;;;;;;;17.88;9.30;;;;;;;;;;4958362;29;20039;-43
2021/09/06 08:37:22;;;;;;;15.93;8.68;;;;;;;;;;4958129;28;20078;-44
2021/09/06 08:39:49;;;;;;;10.15;5.07;;;;;;;;;;4958158;28;20369;-44
2021/09/06 08:42:15;;;;;;;15.27;5.18;;;;;;;;;;4958149;28;20070;-47
2021/09/06 08:44:42;;;;;;;58.47;36.30;;;;;;;;;;4958212;28;20050;-45
2021/09/06 08:47:09;;;;;;;24.52;10.63;;;;;;;;;;4958195;29;20122;-44
2021/09/06 08:49:35;;;;;;;13.73;6.18;;;;;;;;;;4958053;29;20023;-47
2021/09/06 08:52:01;;;;;;;25.33;10.98;;;;;;;;;;4958027;28;20106;-45
2021/09/06 08:54:28;;;;;;;13.98;7.80;;;;;;;;;;4957934;29;20495;-45
2021/09/06 08:56:54;;;;;;;8.95;5.55;;;;;;;;;;4957920;28;20048;-45
2021/09/06 08:59:20;;;;;;;17.20;5.63;;;;;;;;;;4957854;28;20027;-45
2021/09/06 09:01:53;;;;;;;17.70;6.05;;;;;;;;;;4958198;28;20031;-44
2021/09/06 09:04:21;;;;;;;12.73;6.10;;;;;;;;;;4958007;28;20098;-45
2021/09/06 09:06:50;;;;;;;11.77;5.93;;;;;;;;;;4957678;28;20047;-44
2021/09/06 09:09:36;;;;;;;10.65;5.22;;;;;;;;;;4957920;28;20110;-45
2021/09/06 09:12:10;;;;;;;9.10;5.00;;;;;;;;;;4957584;28;20110;-44
2021/09/06 09:14:57;;;;;;;10.32;4.53;;;;;;;;;;4957528;28;20106;-44
2021/09/06 09:17:23;;;;;;;8.60;4.63;;;;;;;;;;4957572;29;20023;-44
2021/09/06 09:19:49;;;;;;;12.10;4.88;;;;;;;;;;4957500;28;20407;-45
2021/09/06 09:22:17;;;;;;;9.68;5.78;;;;;;;;;;4957550;28;20110;-44
2021/09/06 09:24:46;;;;;;;10.38;5.40;;;;;;;;;;4957563;28;20027;-46
2021/09/06 09:27:15;;;;;;;9.43;5.60;;;;;;;;;;4957544;28;20156;-43
2021/09/06 09:29:41;;;;;;;8.00;4.95;;;;;;;;;;4957842;28;20349;-45
2021/09/06 09:32:11;;;;;;;9.45;4.80;;;;;;;;;;4957459;28;20107;-45
2021/09/06 09:34:42;;;;;;;9.23;4.45;;;;;;;;;;4957200;28;20055;-44
2021/09/06 09:37:09;;;;;;;7.88;4.60;;;;;;;;;;4957488;28;20106;-44
2021/09/06 09:39:36;;;;;;;11.35;4.88;;;;;;;;;;4957446;28;20100;-45
2021/09/06 09:42:12;;;;;;;9.77;4.50;;;;;;;;;;4957287;28;20034;-44
2021/09/06 09:44:45;;;;;;;9.85;4.25;;;;;;;;;;4957106;28;20110;-45
2021/09/06 09:47:12;;;;;;;7.57;4.80;;;;;;;;;;4956965;28;20047;-44
2021/09/06 09:49:38;;;;;;;10.35;4.85;;;;;;;;;;4957143;28;20086;-44
2021/09/06 09:52:06;;;;;;;7.82;4.13;;;;;;;;;;4957062;28;20027;-44
2021/09/06 09:54:32;;;;;;;7.38;4.20;;;;;;;;;;4956934;28;20031;-44
2021/09/06 09:56:58;;;;;;;8.95;4.13;;;;;;;;;;4957129;28;20361;-45
2021/09/06 09:59:24;;;;;;;7.60;4.13;;;;;;;;;;4956865;28;20020;-45
2021/09/06 10:02:10;;;;;;;8.60;4.82;;;;;;;;;;4955703;29;20039;-44
2021/09/06 10:04:45;;;;;;;7.35;4.28;;;;;;;;;;4949773;29;20035;-45
2021/09/06 10:07:12;;;;;;;10.13;4.47;;;;;;;;;;4956143;28;20073;-45
2021/09/06 10:09:44;;;;;;;9.00;4.65;;;;;;;;;;4956712;28;20027;-45
2021/09/06 10:12:11;;;;;;;6.85;4.57;;;;;;;;;;4956672;28;20106;-45
2021/09/06 10:14:48;;;;;;;13.15;4.30;;;;;;;;;;4956359;28;20028;-45
2021/09/06 10:17:14;;;;;;;10.77;4.63;;;;;;;;;;4955393;29;20031;-45
2021/09/06 10:19:53;;;;;;;11.07;4.53;;;;;;;;;;4956508;28;20024;-44
2021/09/06 10:22:20;;;;;;;10.63;4.68;;;;;;;;;;4956813;28;20464;-44
2021/09/06 10:24:55;;;;;;;11.88;4.63;;;;;;;;;;4956482;28;20066;-45
2021/09/06 10:27:22;;;;;;;9.60;4.20;;;;;;;;;;4956527;28;20031;-45
2021/09/06 10:30:06;;;;;;;9.40;3.92;;;;;;;;;;4956273;28;20027;-45
2021/09/06 10:32:38;;;;;;;7.78;4.57;;;;;;;;;;4956497;28;20106;-45
2021/09/06 10:35:08;;;;;;;7.55;4.25;;;;;;;;;;4956104;28;20106;-45
2021/09/06 10:37:39;;;;;;;6.88;4.20;;;;;;;;;;4956328;28;20039;-45
2021/09/06 10:40:06;;;;;;;9.57;4.18;;;;;;;;;;4955960;28;20031;-44
2021/09/06 10:42:33;;;;;;;6.38;4.55;;;;;;;;;;4955955;28;20035;-44
2021/09/06 10:45:01;;;;;;;8.77;5.47;;;;;;;;;;4955816;28;20425;-44
2021/09/06 10:47:33;;;;;;;16.08;4.60;;;;;;;;;;4955948;28;20023;-44
2021/09/06 10:50:10;;;;;;;24.50;4.93;;;;;;;;;;4955762;28;20099;-44
2021/09/06 10:52:36;;;;;;;9.65;6.05;;;;;;;;;;4955971;28;20032;-45
2021/09/06 10:55:02;;;;;;;13.75;4.82;;;;;;;;;;4955637;28;20463;-44
2021/09/06 10:57:28;;;;;;;11.13;4.40;;;;;;;;;;4956004;28;20387;-45
2021/09/06 10:59:55;;;;;;;7.63;4.40;;;;;;;;;;4955812;28;20115;-45
2021/09/06 11:02:21;;;;;;;11.85;4.68;;;;;;;;;;4956121;28;20034;-44
2021/09/06 11:04:47;;;;;;;9.77;4.38;;;;;;;;;;4955501;28;20078;-44
2021/09/06 11:07:14;;;;;;;9.27;4.50;;;;;;;;;;4955477;28;20043;-44
2021/09/06 11:09:40;;;;;;;7.38;4.45;;;;;;;;;;4955596;28;20026;-44
2021/09/06 11:12:10;;;;;;;10.68;4.32;;;;;;;;;;4955435;28;20031;-46
2021/09/06 11:14:38;;;;;;;8.38;4.57;;;;;;;;;;4955180;28;20023;-44
2021/09/06 11:17:14;;;;;;;11.98;4.80;;;;;;;;;;4955407;28;20480;-44
2021/09/06 11:19:40;;;;;;;8.45;4.45;;;;;;;;;;4954504;28;20069;-43
2021/09/06 11:22:06;;;;;;;10.05;4.75;;;;;;;;;;4955548;28;20026;-44
2021/09/06 11:24:33;;;;;;;7.20;4.28;;;;;;;;;;4955422;28;20110;-44
2021/09/06 11:26:59;;;;;;;10.10;4.63;;;;;;;;;;4955500;28;20098;-45
2021/09/06 11:29:25;;;;;;;7.32;5.18;;;;;;;;;;4955167;28;20113;-44
2021/09/06 11:31:51;;;;;;;8.20;4.95;;;;;;;;;;4955293;28;20432;-44
2021/09/06 11:34:23;;;;;;;9.70;5.22;;;;;;;;;;4955233;28;20035;-44
2021/09/06 11:36:52;;;;;;;7.18;4.65;;;;;;;;;;4955296;28;20024;-45
2021/09/06 11:39:18;;;;;;;15.48;8.98;;;;;;;;;;4955098;28;20183;-44
2021/09/06 11:41:44;;;;;;;7.63;5.00;;;;;;;;;;4955039;28;20051;-45
2021/09/06 11:44:10;;;;;;;9.82;4.70;;;;;;;;;;4955103;28;20062;-45
2021/09/06 11:46:39;;;;;;;9.63;5.75;;;;;;;;;;4955115;28;20027;-45
2021/09/06 11:49:06;;;;;;;5.53;4.55;;;;;;;;;;4955004;28;20034;-45
2021/09/06 11:51:32;;;;;;;10.60;5.13;;;;;;;;;;4955179;28;20432;-44
2021/09/06 11:54:03;;;;;;;11.25;4.57;;;;;;;;;;4955091;28;20030;-45
2021/09/06 11:56:29;;;;;;;7.85;4.93;;;;;;;;;;4955050;28;20035;-45
2021/09/06 11:58:56;;;;;;;11.48;4.97;;;;;;;;;;4954915;28;20058;-45
2021/09/06 12:01:23;;;;;;;8.15;4.72;;;;;;;;;;4954854;28;20090;-45
2021/09/06 12:03:49;;;;;;;6.80;4.88;;;;;;;;;;4954913;28;20106;-44
2021/09/06 12:06:17;;;;;;;9.50;4.32;;;;;;;;;;4954799;28;20112;-45
2021/09/06 12:08:53;;;;;;;9.07;4.55;;;;;;;;;;4953688;29;20043;-45
2021/09/06 12:11:22;;;;;;;8.23;4.63;;;;;;;;;;4955031;28;20027;-45
2021/09/06 12:13:58;;;;;;;13.25;4.63;;;;;;;;;;4955068;28;20058;-45
2021/09/06 12:16:31;;;;;;;6.38;3.72;;;;;;;;;;4955362;28;20039;-44
2021/09/06 12:18:57;;;;;;;11.20;4.80;;;;;;;;;;4955040;28;20368;-45
2021/09/06 12:21:24;;;;;;;8.95;4.85;;;;;;;;;;4955063;28;20443;-44
2021/09/06 12:23:52;;;;;;;7.35;5.30;;;;;;;;;;4954944;28;20019;-45
2021/09/06 12:26:18;;;;;;;9.40;4.90;;;;;;;;;;4953633;29;20433;-44
2021/09/06 12:28:51;;;;;;;9.32;5.20;;;;;;;;;;4954826;28;20531;-45
2021/09/06 12:31:18;;;;;;;6.15;4.80;;;;;;;;;;4957063;28;20049;-45
2021/09/06 12:33:46;;;;;;;6.30;4.80;;;;;;;;;;4958543;28;20034;-45
2021/09/06 12:36:13;;;;;;;7.25;4.53;;;;;;;;;;4958445;28;20433;-44
2021/09/06 12:38:39;;;;;;;10.90;5.30;;;;;;;;;;4958319;28;20106;-45
2021/09/06 12:41:05;;;;;;;9.43;5.20;;;;;;;;;;4958374;28;20118;-44
2021/09/06 12:43:31;;;;;;;8.00;5.15;;;;;;;;;;4958333;28;20031;-46
2021/09/06 12:45:57;;;;;;;7.38;4.30;;;;;;;;;;4958060;28;20019;-45
2021/09/06 12:48:23;;;;;;;9.07;4.65;;;;;;;;;;4958169;28;20042;-44
2021/09/06 12:50:49;;;;;;;8.27;4.40;;;;;;;;;;4958266;28;20066;-45
2021/09/06 12:53:16;;;;;;;9.32;4.47;;;;;;;;;;4958270;28;20440;-44
2021/09/06 12:55:45;;;;;;;8.93;4.68;;;;;;;;;;4958447;28;20515;-44
2021/09/06 12:58:12;;;;;;;14.48;7.65;;;;;;;;;;4957936;28;20030;-45
2021/09/06 13:00:38;;;;;;;12.43;5.43;;;;;;;;;;4957579;28;20038;-45
2021/09/06 13:03:04;;;;;;;9.20;4.90;;;;;;;;;;4958058;28;20487;-43
2021/09/06 13:05:30;;;;;;;6.50;4.60;;;;;;;;;;4957901;28;20471;-44
2021/09/06 13:07:57;;;;;;;8.93;4.82;;;;;;;;;;4947827;28;20039;-45
2021/09/06 13:10:30;;;;;;;10.07;4.78;;;;;;;;;;4947785;29;20087;-45
2021/09/06 13:12:57;;;;;;;46.45;26.25;;;;;;;;;;4946915;29;20044;-47
2021/09/06 13:15:23;;;;;;;8.40;5.13;;;;;;;;;;4947097;29;20042;-45
2021/09/06 13:17:49;;;;;;;17.58;9.88;;;;;;;;;;4948215;29;20034;-44
2021/09/06 13:20:16;;;;;;;9.35;6.25;;;;;;;;;;4946512;29;20020;-49
2021/09/06 13:22:42;;;;;;;14.88;8.73;;;;;;;;;;4947784;29;20428;-47
2021/09/06 13:25:09;;;;;;;14.13;8.85;;;;;;;;;;4948241;29;20032;-46
2021/09/06 13:27:36;;;;;;;23.45;14.88;;;;;;;;;;4949024;29;20366;-47
2021/09/06 13:30:11;;;;;;;12.02;5.60;;;;;;;;;;4947165;29;20020;-45
2021/09/06 13:32:37;;;;;;;32.45;19.83;;;;;;;;;;4946532;29;20490;-48
2021/09/06 13:35:03;;;;;;;19.55;12.13;;;;;;;;;;4947029;29;20034;-46
2021/09/06 13:37:29;;;;;;;16.00;8.68;;;;;;;;;;4947930;29;20032;-48
2021/09/06 13:39:55;;;;;;;59.15;38.05;;;;;;;;;;4948753;29;20020;-47
2021/09/06 13:42:21;;;;;;;72.72;44.80;;;;;;;;;;4946343;29;20023;-49
2021/09/06 13:44:47;;;;;;;100.00;61.08;;;;;;;;;;4947535;29;20027;-45
2021/09/06 13:47:13;;;;;;;46.30;30.80;;;;;;;;;;4945814;29;20024;-44
2021/09/06 13:49:39;;;;;;;23.45;13.75;;;;;;;;;;4947282;29;20019;-45
2021/09/06 13:52:06;;;;;;;11.00;5.22;;;;;;;;;;4939399;29;20485;-46
2021/09/06 13:54:32;;;;;;;10.73;5.65;;;;;;;;;;4937618;29;20031;-45
2021/09/06 13:56:58;;;;;;;11.13;5.47;;;;;;;;;;4937675;29;20042;-46
2021/09/06 13:59:24;;;;;;;15.48;9.18;;;;;;;;;;4937531;29;20469;-46
2021/09/06 14:01:50;;;;;;;16.35;7.43;;;;;;;;;;4937589;29;20095;-46
2021/09/06 14:04:18;;;;;;;12.35;7.53;;;;;;;;;;4937630;29;20055;-46
2021/09/06 14:06:47;;;;;;;18.48;7.45;;;;;;;;;;4937366;29;20081;-46
2021/09/06 14:09:13;;;;;;;15.32;8.73;;;;;;;;;;4937301;29;20039;-43
2021/09/06 14:11:39;;;;;;;10.68;5.07;;;;;;;;;;4937282;29;20467;-47
2021/09/06 14:14:05;;;;;;;12.07;6.78;;;;;;;;;;4937304;29;20107;-46
2021/09/06 14:16:31;;;;;;;11.25;6.47;;;;;;;;;;4937113;29;20036;-45
2021/09/06 14:18:58;;;;;;;40.72;20.30;;;;;;;;;;4937226;29;20481;-42
2021/09/06 14:21:26;;;;;;;28.67;15.65;;;;;;;;;;4937188;29;20465;-46
2021/09/06 14:23:52;;;;;;;20.05;12.32;;;;;;;;;;4937196;29;20054;-46
2021/09/06 14:26:21;;;;;;;17.83;9.73;;;;;;;;;;4937046;29;20023;-43
2021/09/06 14:28:47;;;;;;;102.40;61.72;;;;;;;;;;4937014;29;20059;-45
2021/09/06 14:31:13;;;;;;;33.40;21.23;;;;;;;;;;4936905;29;20020;-44
2021/09/06 14:33:42;;;;;;;97.68;38.53;;;;;;;;;;4937200;29;20024;-46
2021/09/06 14:36:08;;;;;;;59.50;27.73;;;;;;;;;;4936959;29;21742;-44